Time;durP1;ratioP1;P1;durP2;ratioP2;P2;SDS_P1;SDS_P2;PMS_P1;PMS_P2;Temp;Humidity;BMP_temperature;BMP_pressure;BME280_temperature;BME280_humidity;BME280_pressure;Samples;Min_cycle;Max_cycle;Signal;HPM_P1;HPM_P2
2021/12/01 00:00:39;;;;;;;;;;;24.60;99.90;;;;;;5073542;28;20000;-72
2021/12/01 00:03:06;;;;;;;;;;;24.50;99.90;;;;;;5073030;28;19913;-67
2021/12/01 00:05:33;;;;;;;;;;;24.50;99.90;;;;;;5073251;28;19938;-69
2021/12/01 00:08:00;;;;;;;;;;;24.40;99.90;;;;;;5072306;28;20094;-70
2021/12/01 00:10:28;;;;;;;;;;;24.40;99.90;;;;;;5073198;28;19924;-67
2021/12/01 00:12:58;;;;;;;;;;;24.50;99.90;;;;;;5072768;28;19956;-68
2021/12/01 00:15:24;;;;;;;;;;;24.60;99.90;;;;;;5073235;28;19913;-69
2021/12/01 00:17:51;;;;;;;;;;;24.60;99.90;;;;;;5072337;28;20375;-70
2021/12/01 00:20:19;;;;;;;;;;;24.70;99.90;;;;;;5072845;28;19923;-72
2021/12/01 00:22:46;;;;;;;;;;;24.90;99.90;;;;;;5072475;28;19936;-69
2021/12/01 00:25:15;;;;;;;;;;;24.80;99.90;;;;;;5072223;28;19913;-68
2021/12/01 00:27:46;;;;;;;;;;;25.00;99.90;;;;;;5072729;28;20248;-67
2021/12/01 00:30:13;;;;;;;;;;;25.20;99.90;;;;;;5071866;28;19973;-71
2021/12/01 00:32:39;;;;;;;;;;;25.40;99.90;;;;;;5072426;28;19913;-69
2021/12/01 00:35:06;;;;;;;;;;;25.40;99.90;;;;;;5072244;28;19917;-72
2021/12/01 00:37:33;;;;;;;;;;;25.60;99.90;;;;;;5069898;28;20371;-73
2021/12/01 00:40:00;;;;;;;;;;;26.10;99.90;;;;;;5072172;28;19912;-71
2021/12/01 00:42:27;;;;;;;;;;;26.50;99.90;;;;;;5072662;28;19912;-72
2021/12/01 00:45:00;;;;;;;;;;;26.70;99.90;;;;;;5072060;28;19912;-73
2021/12/01 00:50:30;;;;;;;;;;;26.50;99.90;;;;;;5060984;28;19967;-73
2021/12/01 00:53:00;;;;;;;;;;;26.60;99.90;;;;;;5071266;28;19941;-67
2021/12/01 00:55:27;;;;;;;;;;;26.50;99.90;;;;;;5072448;28;19999;-69
2021/12/01 00:57:53;;;;;;;;;;;25.70;99.90;;;;;;5071669;28;19921;-66
2021/12/01 01:00:21;;;;;;;;;;;25.50;99.90;;;;;;5072354;28;19979;-69
2021/12/01 01:02:48;;;;;;;;;;;25.50;99.90;;;;;;5072116;28;19917;-67
2021/12/01 01:05:15;;;;;;;;;;;25.60;99.90;;;;;;5071963;28;20286;-66
2021/12/01 01:07:42;;;;;;;;;;;25.90;99.90;;;;;;5071181;28;19916;-69
2021/12/01 01:18:25;;;;;;;;;;;27.00;99.90;;;;;;5055537;28;19924;-68
2021/12/01 01:20:51;;;;;;;;;;;27.10;99.90;;;;;;5053895;28;20340;-68
2021/12/01 01:23:18;;;;;;;;;;;27.10;99.90;;;;;;5055640;28;20391;-71
2021/12/01 01:25:45;;;;;;;;;;;26.90;99.90;;;;;;5053652;28;20008;-67
2021/12/01 01:28:12;;;;;;;;;;;26.90;99.90;;;;;;5055248;28;20333;-69
2021/12/01 01:30:38;;;;;;;;;;;27.00;99.90;;;;;;5059753;28;19928;-68
2021/12/01 01:33:09;;;;;;;;;;;27.50;99.90;;;;;;5057512;28;20354;-73
2021/12/01 01:35:36;;;;;;;;;;;27.60;99.90;;;;;;5043242;28;19923;-71
2021/12/01 01:38:02;;;;;;;;;;;27.60;99.90;;;;;;5051609;28;19952;-73
2021/12/01 01:40:29;;;;;;;;;;;27.20;99.90;;;;;;5054299;28;19980;-71
2021/12/01 01:42:57;;;;;;;;;;;26.90;99.90;;;;;;5054127;28;19951;-72
2021/12/01 01:45:23;;;;;;;;;;;26.50;99.90;;;;;;5054625;28;19920;-72
2021/12/01 01:47:59;;;;;;;;;;;26.20;99.90;;;;;;5053764;28;20024;-71
2021/12/01 01:50:37;;;;;;;;;;;25.90;99.90;;;;;;5054959;28;20360;-71
2021/12/01 01:53:09;;;;;;;;;;;25.70;99.90;;;;;;5053659;28;19908;-68
2021/12/01 01:55:38;;;;;;;;;;;25.50;99.90;;;;;;5053202;28;19919;-71
2021/12/01 01:58:05;;;;;;;;;;;25.70;99.90;;;;;;5053719;28;19917;-68
2021/12/01 02:00:37;;;;;;;;;;;25.70;99.90;;;;;;5053825;28;19917;-68
2021/12/01 02:03:04;;;;;;;;;;;25.70;99.90;;;;;;5054106;28;19917;-67
2021/12/01 02:05:37;;;;;;;;;;;25.50;99.90;;;;;;5054579;28;20497;-68
2021/12/01 02:08:04;;;;;;;;;;;25.50;99.90;;;;;;5058393;28;19925;-69
2021/12/01 02:10:30;;;;;;;;;;;25.30;99.90;;;;;;5071174;28;19924;-66
2021/12/01 02:12:57;;;;;;;;;;;25.40;99.90;;;;;;5070793;28;19938;-68
2021/12/01 02:15:24;;;;;;;;;;;25.10;99.90;;;;;;5070822;28;19920;-70
2021/12/01 02:17:50;;;;;;;;;;;25.10;99.90;;;;;;5070321;28;19919;-67
2021/12/01 02:20:21;;;;;;;;;;;25.20;99.90;;;;;;5069875;28;19912;-67
2021/12/01 02:22:49;;;;;;;;;;;25.30;99.90;;;;;;5070956;28;20320;-67
2021/12/01 02:25:16;;;;;;;;;;;25.60;99.90;;;;;;5070512;28;19921;-71
2021/12/01 02:27:43;;;;;;;;;;;25.30;99.90;;;;;;5070929;28;19916;-66
2021/12/01 02:30:09;;;;;;;;;;;25.30;99.90;;;;;;5068899;28;19931;-67
2021/12/01 02:32:36;;;;;;;;;;;25.30;99.90;;;;;;5070976;28;19918;-71
2021/12/01 02:35:03;;;;;;;;;;;25.50;99.90;;;;;;5070277;28;19942;-67
2021/12/01 02:37:30;;;;;;;;;;;25.40;99.90;;;;;;5065378;28;19956;-67
2021/12/01 02:39:57;;;;;;;;;;;25.20;99.90;;;;;;5070125;28;19970;-66
2021/12/01 02:42:24;;;;;;;;;;;25.10;99.90;;;;;;5061246;28;19969;-67
2021/12/01 02:44:51;;;;;;;;;;;25.00;99.90;;;;;;5070382;28;20432;-67
2021/12/01 02:47:17;;;;;;;;;;;25.20;99.90;;;;;;5070815;28;19917;-67
2021/12/01 02:49:44;;;;;;;;;;;25.00;99.90;;;;;;5070091;28;19920;-67
2021/12/01 02:52:11;;;;;;;;;;;24.90;99.90;;;;;;5070767;28;20363;-68
2021/12/01 02:54:37;;;;;;;;;;;24.90;99.90;;;;;;5070408;28;20018;-68
2021/12/01 02:57:04;;;;;;;;;;;24.70;99.90;;;;;;5070472;28;19913;-67
2021/12/01 02:59:31;;;;;;;;;;;24.60;99.90;;;;;;5070589;28;19917;-68
2021/12/01 03:01:59;;;;;;;;;;;24.60;99.90;;;;;;5069987;28;20397;-68
2021/12/01 03:04:26;;;;;;;;;;;24.50;99.90;;;;;;5070056;28;19913;-68
2021/12/01 03:06:53;;;;;;;;;;;24.60;99.90;;;;;;5068875;28;19916;-69
2021/12/01 03:09:20;;;;;;;;;;;24.70;99.90;;;;;;5060852;28;19925;-67
2021/12/01 03:11:49;;;;;;;;;;;24.60;99.90;;;;;;5053889;28;20050;-65
2021/12/01 03:14:16;;;;;;;;;;;24.70;99.90;;;;;;5052543;28;19920;-66
2021/12/01 03:16:44;;;;;;;;;;;24.70;99.90;;;;;;5054120;28;19965;-66
2021/12/01 03:19:11;;;;;;;;;;;24.60;99.90;;;;;;5052598;28;19919;-66
2021/12/01 03:21:39;;;;;;;;;;;24.40;99.90;;;;;;5052756;28;19963;-67
2021/12/01 03:24:06;;;;;;;;;;;24.40;99.90;;;;;;5052813;28;19917;-67
2021/12/01 03:26:33;;;;;;;;;;;24.30;99.90;;;;;;5053562;28;20013;-67
2021/12/01 03:29:01;;;;;;;;;;;24.40;99.90;;;;;;5058206;28;19913;-67
2021/12/01 03:31:27;;;;;;;;;;;24.40;99.90;;;;;;5061317;28;19917;-67
2021/12/01 03:33:54;;;;;;;;;;;24.20;99.90;;;;;;5056141;28;20276;-68
2021/12/01 03:36:21;;;;;;;;;;;24.20;99.90;;;;;;5056668;28;19995;-66
2021/12/01 03:38:47;;;;;;;;;;;24.40;99.90;;;;;;5057241;28;20321;-68
2021/12/01 03:41:14;;;;;;;;;;;24.40;99.90;;;;;;5055859;28;20023;-67
2021/12/01 03:43:41;;;;;;;;;;;24.50;99.90;;;;;;5056884;28;19921;-66
2021/12/01 03:46:08;;;;;;;;;;;24.50;99.90;;;;;;5055449;28;19921;-66
2021/12/01 03:48:34;;;;;;;;;;;24.60;99.90;;;;;;5057429;28;19917;-67
2021/12/01 03:51:01;;;;;;;;;;;24.50;99.90;;;;;;5055661;28;19921;-66
2021/12/01 03:53:28;;;;;;;;;;;24.50;99.90;;;;;;5056697;28;19921;-67
2021/12/01 03:55:55;;;;;;;;;;;24.60;99.90;;;;;;5055660;28;19999;-67
2021/12/01 03:58:21;;;;;;;;;;;24.70;99.90;;;;;;5055931;28;20382;-69
2021/12/01 04:00:48;;;;;;;;;;;24.50;99.90;;;;;;5056645;28;20027;-67
2021/12/01 04:03:15;;;;;;;;;;;24.60;99.90;;;;;;5056180;28;20298;-68
2021/12/01 04:05:41;;;;;;;;;;;24.50;99.90;;;;;;5056425;28;19936;-66
2021/12/01 04:08:08;;;;;;;;;;;24.60;99.90;;;;;;5058242;28;20385;-68
2021/12/01 04:10:35;;;;;;;;;;;24.60;99.90;;;;;;5073253;28;19962;-67
2021/12/01 04:13:02;;;;;;;;;;;24.50;99.90;;;;;;5073219;28;20359;-67
2021/12/01 04:15:29;;;;;;;;;;;24.50;99.90;;;;;;5072864;28;19919;-67
2021/12/01 04:17:56;;;;;;;;;;;24.50;99.90;;;;;;5073015;28;19908;-66
2021/12/01 04:20:22;;;;;;;;;;;24.40;99.90;;;;;;5072742;28;19925;-67
2021/12/01 04:22:50;;;;;;;;;;;24.50;99.90;;;;;;5073372;28;19908;-69
2021/12/01 04:25:17;;;;;;;;;;;24.50;99.90;;;;;;5072688;28;20397;-65
2021/12/01 04:27:44;;;;;;;;;;;24.40;99.90;;;;;;5073301;28;19912;-67
2021/12/01 04:30:12;;;;;;;;;;;24.40;99.90;;;;;;5072414;28;19916;-67
2021/12/01 04:32:39;;;;;;;;;;;24.40;99.90;;;;;;5072843;28;19920;-67
2021/12/01 04:35:06;;;;;;;;;;;24.50;99.90;;;;;;5072119;28;19931;-67
2021/12/01 04:37:35;;;;;;;;;;;24.40;99.90;;;;;;5071545;28;20089;-67
2021/12/01 04:40:01;;;;;;;;;;;24.30;99.90;;;;;;5071870;28;19915;-67
2021/12/01 04:42:28;;;;;;;;;;;24.30;99.90;;;;;;5072804;28;19978;-67
2021/12/01 04:44:55;;;;;;;;;;;24.30;99.90;;;;;;5072583;28;19909;-67
2021/12/01 04:47:28;;;;;;;;;;;24.20;99.90;;;;;;5072249;28;19943;-67
2021/12/01 04:49:55;;;;;;;;;;;24.20;99.90;;;;;;5072143;28;19963;-67
2021/12/01 04:52:22;;;;;;;;;;;24.10;99.90;;;;;;5072673;28;19951;-66
2021/12/01 04:54:49;;;;;;;;;;;24.20;99.90;;;;;;5073230;28;19959;-67
2021/12/01 04:57:16;;;;;;;;;;;24.20;99.90;;;;;;5072200;28;20270;-67
2021/12/01 04:59:44;;;;;;;;;;;24.10;99.90;;;;;;5072641;28;19914;-67
2021/12/01 05:02:10;;;;;;;;;;;24.20;99.90;;;;;;5071996;28;19917;-73
2021/12/01 05:04:37;;;;;;;;;;;24.30;99.90;;;;;;5074651;28;20026;-71
2021/12/01 05:07:04;;;;;;;;;;;24.30;99.90;;;;;;5072625;28;19913;-72
2021/12/01 05:09:31;;;;;;;;;;;24.30;99.90;;;;;;5063589;28;19968;-73
2021/12/01 05:11:58;;;;;;;;;;;24.20;99.90;;;;;;5054856;28;19999;-72
2021/12/01 05:14:25;;;;;;;;;;;24.30;99.90;;;;;;5064011;28;20048;-73
2021/12/01 05:16:52;;;;;;;;;;;24.30;99.90;;;;;;5055336;28;20474;-73
2021/12/01 05:19:19;;;;;;;;;;;24.30;99.90;;;;;;5055190;28;19971;-72
2021/12/01 05:21:45;;;;;;;;;;;24.30;99.90;;;;;;5054419;28;19978;-72
2021/12/01 05:24:12;;;;;;;;;;;24.20;99.90;;;;;;5055262;28;19920;-73
2021/12/01 05:26:39;;;;;;;;;;;24.20;99.90;;;;;;5054306;28;20406;-70
2021/12/01 05:29:06;;;;;;;;;;;24.00;99.90;;;;;;5055165;28;19921;-67
2021/12/01 05:31:32;;;;;;;;;;;24.00;99.90;;;;;;5063131;28;19912;-68
2021/12/01 05:34:00;;;;;;;;;;;23.90;99.90;;;;;;5054850;28;19961;-71
2021/12/01 05:36:26;;;;;;;;;;;24.00;99.90;;;;;;5053329;28;20025;-72
2021/12/01 05:38:53;;;;;;;;;;;24.00;99.90;;;;;;5055818;28;19948;-70
2021/12/01 05:41:20;;;;;;;;;;;24.10;99.90;;;;;;5061791;28;19916;-71
2021/12/01 05:43:46;;;;;;;;;;;24.00;99.90;;;;;;5055045;28;19913;-71
2021/12/01 05:46:13;;;;;;;;;;;24.10;99.90;;;;;;5044662;28;20003;-72
2021/12/01 05:48:40;;;;;;;;;;;24.00;99.90;;;;;;5053981;28;19916;-72
2021/12/01 05:51:07;;;;;;;;;;;23.80;99.90;;;;;;5052250;28;19942;-72
2021/12/01 05:53:34;;;;;;;;;;;23.70;99.90;;;;;;5033986;28;19936;-72
2021/12/01 05:56:01;;;;;;;;;;;23.70;99.90;;;;;;5051737;28;19999;-70
2021/12/01 05:58:28;;;;;;;;;;;23.60;99.90;;;;;;5051537;28;19921;-70
2021/12/01 06:00:55;;;;;;;;;;;23.60;99.90;;;;;;5052550;28;19913;-70
2021/12/01 06:03:22;;;;;;;;;;;23.70;99.90;;;;;;5049166;28;19917;-72
2021/12/01 06:05:48;;;;;;;;;;;23.70;99.90;;;;;;5052696;28;19923;-70
2021/12/01 06:08:15;;;;;;;;;;;23.70;99.90;;;;;;5057867;28;20298;-70
2021/12/01 06:10:42;;;;;;;;;;;23.70;99.90;;;;;;5068694;28;19936;-71
2021/12/01 06:13:15;;;;;;;;;;;23.70;99.90;;;;;;5068594;28;21323;-71
2021/12/01 06:15:43;;;;;;;;;;;23.50;99.90;;;;;;5068743;28;19920;-72
2021/12/01 06:18:11;;;;;;;;;;;23.50;99.90;;;;;;5068328;28;19972;-70
2021/12/01 06:20:39;;;;;;;;;;;23.50;99.90;;;;;;5068602;28;20331;-73
2021/12/01 06:23:05;;;;;;;;;;;23.60;99.90;;;;;;5065921;28;19916;-72
2021/12/01 06:25:32;;;;;;;;;;;23.50;99.90;;;;;;5066092;28;19923;-70
2021/12/01 06:27:59;;;;;;;;;;;23.50;99.90;;;;;;5068788;28;19913;-70
2021/12/01 06:30:27;;;;;;;;;;;23.40;99.90;;;;;;5068507;28;19932;-71
2021/12/01 06:32:54;;;;;;;;;;;23.30;99.90;;;;;;5068707;28;19913;-72
2021/12/01 06:35:21;;;;;;;;;;;23.20;99.90;;;;;;5058697;28;19921;-71
2021/12/01 06:37:47;;;;;;;;;;;23.20;99.90;;;;;;5068281;28;19912;-71
2021/12/01 06:40:15;;;;;;;;;;;23.10;99.90;;;;;;5067955;28;20110;-71
2021/12/01 06:42:41;;;;;;;;;;;23.00;99.90;;;;;;5068475;28;19938;-71
2021/12/01 06:45:09;;;;;;;;;;;23.00;99.90;;;;;;5068139;28;20020;-71
2021/12/01 06:47:36;;;;;;;;;;;22.90;99.90;;;;;;5068336;28;19922;-72
2021/12/01 06:50:04;;;;;;;;;;;22.90;99.90;;;;;;5067786;28;19920;-70
2021/12/01 06:52:30;;;;;;;;;;;22.90;99.90;;;;;;5067973;28;19916;-72
2021/12/01 06:54:57;;;;;;;;;;;22.90;99.90;;;;;;5068511;28;20575;-72
2021/12/01 06:57:24;;;;;;;;;;;22.90;99.90;;;;;;5067878;28;19928;-68
2021/12/01 06:59:51;;;;;;;;;;;23.00;99.90;;;;;;5068436;28;19916;-71
2021/12/01 07:02:18;;;;;;;;;;;22.90;99.90;;;;;;5066274;28;19927;-71
2021/12/01 07:04:45;;;;;;;;;;;23.10;99.90;;;;;;5072446;28;19952;-72
2021/12/01 07:07:12;;;;;;;;;;;22.90;99.90;;;;;;5071668;28;19913;-72
2021/12/01 07:09:41;;;;;;;;;;;22.90;99.90;;;;;;5064657;28;20035;-69
2021/12/01 07:12:08;;;;;;;;;;;22.90;99.90;;;;;;5054136;28;20004;-73
2021/12/01 07:14:35;;;;;;;;;;;22.80;99.90;;;;;;5063436;28;19982;-72
2021/12/01 07:17:02;;;;;;;;;;;22.80;99.90;;;;;;5054163;28;19955;-69
2021/12/01 07:19:28;;;;;;;;;;;22.70;99.90;;;;;;5055376;28;20015;-72
2021/12/01 07:21:55;;;;;;;;;;;22.80;99.90;;;;;;5054281;28;19916;-69
2021/12/01 07:24:22;;;;;;;;;;;22.70;99.90;;;;;;5055330;28;19969;-73
2021/12/01 07:26:48;;;;;;;;;;;22.60;99.90;;;;;;5054108;28;20001;-71
2021/12/01 07:29:24;;;;;;;;;;;22.50;99.90;;;;;;5055100;28;20375;-72
2021/12/01 07:31:51;;;;;;;;;;;22.50;99.90;;;;;;5054141;28;20321;-67
2021/12/01 07:34:18;;;;;;;;;;;22.50;99.90;;;;;;5055839;28;19963;-72
2021/12/01 07:36:44;;;;;;;;;;;22.40;99.90;;;;;;5053814;28;19913;-68
2021/12/01 07:39:11;;;;;;;;;;;22.40;99.90;;;;;;5055378;28;20307;-68
2021/12/01 07:41:38;;;;;;;;;;;22.30;99.90;;;;;;5053445;28;19924;-72
2021/12/01 07:44:05;;;;;;;;;;;22.30;99.90;;;;;;5054828;28;19920;-68
2021/12/01 07:46:31;;;;;;;;;;;22.30;99.90;;;;;;5053923;28;20285;-72
2021/12/01 07:48:58;;;;;;;;;;;22.20;99.90;;;;;;5054559;28;19994;-68
2021/12/01 07:51:24;;;;;;;;;;;22.30;99.90;;;;;;5051706;28;19920;-71
2021/12/01 07:53:53;;;;;;;;;;;22.20;99.90;;;;;;5053867;28;19920;-72
2021/12/01 07:56:19;;;;;;;;;;;22.10;99.90;;;;;;5054268;28;20363;-69
2021/12/01 07:58:46;;;;;;;;;;;22.10;99.90;;;;;;5053527;28;19920;-72
2021/12/01 08:01:13;;;;;;;;;;;22.10;99.90;;;;;;5054162;28;19935;-72
2021/12/01 08:03:39;;;;;;;;;;;22.10;99.90;;;;;;5053008;28;20291;-69
2021/12/01 08:06:10;;;;;;;;;;;22.10;99.90;;;;;;5054088;28;20008;-72
2021/12/01 08:08:36;;;;;;;;;;;22.00;99.90;;;;;;5055380;28;19925;-69
2021/12/01 08:11:03;;;;;;;;;;;22.00;99.90;;;;;;5056186;28;20391;-68
2021/12/01 08:13:30;;;;;;;;;;;22.00;99.90;;;;;;5055503;28;20016;-72
2021/12/01 08:15:56;;;;;;;;;;;21.90;99.90;;;;;;5055791;28;19920;-68
2021/12/01 08:18:23;;;;;;;;;;;21.90;99.90;;;;;;5055174;28;20391;-71
2021/12/01 08:20:50;;;;;;;;;;;21.90;99.90;;;;;;5056228;28;19932;-68
2021/12/01 08:23:16;;;;;;;;;;;21.80;99.90;;;;;;5055093;28;20359;-69
2021/12/01 08:25:43;;;;;;;;;;;21.80;99.90;;;;;;5055700;28;20242;-71
2021/12/01 08:28:10;;;;;;;;;;;21.80;99.90;;;;;;5055394;28;19924;-72
2021/12/01 08:30:37;;;;;;;;;;;21.80;99.90;;;;;;5055962;28;19921;-72
2021/12/01 08:33:03;;;;;;;;;;;21.80;99.90;;;;;;5055547;28;19924;-72
2021/12/01 08:35:30;;;;;;;;;;;21.70;99.90;;;;;;5053375;28;20023;-71
2021/12/01 08:37:57;;;;;;;;;;;21.60;99.90;;;;;;5055830;28;19913;-71
2021/12/01 08:40:23;;;;;;;;;;;21.60;99.90;;;;;;5054999;28;20440;-72
2021/12/01 08:42:50;;;;;;;;;;;21.60;99.90;;;;;;5054942;28;20051;-69
2021/12/01 08:45:17;;;;;;;;;;;21.70;99.90;;;;;;5054705;28;19923;-69
2021/12/01 08:47:44;;;;;;;;;;;21.60;99.90;;;;;;5056038;28;19917;-72
2021/12/01 08:50:12;;;;;;;;;;;21.50;99.90;;;;;;5054120;28;19912;-70
2021/12/01 08:52:39;;;;;;;;;;;21.40;99.90;;;;;;5056246;28;19962;-72
2021/12/01 08:55:06;;;;;;;;;;;21.40;99.90;;;;;;5054215;28;19914;-72
2021/12/01 08:57:33;;;;;;;;;;;21.40;99.90;;;;;;5055856;28;19912;-70
2021/12/01 09:00:00;;;;;;;;;;;21.30;99.90;;;;;;5044994;28;19917;-69
2021/12/01 09:02:26;;;;;;;;;;;21.30;99.90;;;;;;5062615;28;19916;-69
2021/12/01 09:04:53;;;;;;;;;;;21.30;99.90;;;;;;5055449;28;20371;-71
2021/12/01 09:07:20;;;;;;;;;;;21.40;99.90;;;;;;5054622;28;19915;-70
2021/12/01 09:09:47;;;;;;;;;;;21.40;99.90;;;;;;5064201;28;19947;-68
2021/12/01 09:12:14;;;;;;;;;;;21.40;99.90;;;;;;5054667;28;19912;-71
2021/12/01 09:14:44;;;;;;;;;;;21.40;99.90;;;;;;5055291;28;20298;-71
2021/12/01 09:17:12;;;;;;;;;;;21.30;99.90;;;;;;5054367;28;19913;-73
2021/12/01 09:19:39;;;;;;;;;;;21.30;99.90;;;;;;5054623;28;20035;-73
2021/12/01 09:22:06;;;;;;;;;;;21.30;99.90;;;;;;5053732;28;19917;-69
2021/12/01 09:24:33;;;;;;;;;;;21.30;99.90;;;;;;5056074;28;20304;-70
2021/12/01 09:27:00;;;;;;;;;;;21.30;99.90;;;;;;5053314;28;20358;-73
2021/12/01 09:29:27;;;;;;;;;;;21.30;99.90;;;;;;5055199;28;19925;-72
2021/12/01 09:31:58;;;;;;;;;;;21.30;99.90;;;;;;5054340;28;19960;-72
2021/12/01 09:34:26;;;;;;;;;;;21.20;99.90;;;;;;5054979;28;20303;-74
2021/12/01 09:36:53;;;;;;;;;;;21.20;99.90;;;;;;5053809;28;20279;-71
2021/12/01 09:39:20;;;;;;;;;;;21.20;99.90;;;;;;5038083;28;19917;-71
2021/12/01 09:41:47;;;;;;;;;;;21.20;99.90;;;;;;5053558;28;20378;-70
2021/12/01 09:44:20;;;;;;;;;;;21.10;99.90;;;;;;5055297;28;19920;-74
2021/12/01 09:46:46;;;;;;;;;;;21.10;99.90;;;;;;5054039;28;20043;-71
2021/12/01 09:49:13;;;;;;;;;;;21.10;99.90;;;;;;5053696;28;20375;-72
2021/12/01 09:51:40;;;;;;;;;;;21.00;99.90;;;;;;5062221;28;19989;-72
2021/12/01 09:54:06;;;;;;;;;;;21.00;99.90;;;;;;5053588;28;19927;-70
2021/12/01 09:56:33;;;;;;;;;;;21.00;99.90;;;;;;5054769;28;20343;-70
2021/12/01 09:59:00;;;;;;;;;;;21.00;99.90;;;;;;5053825;28;19920;-72
2021/12/01 10:01:27;;;;;;;;;;;21.00;99.90;;;;;;5054815;28;19912;-70
2021/12/01 10:03:54;;;;;;;;;;;20.90;99.90;;;;;;5052936;28;19917;-68
2021/12/01 10:06:22;;;;;;;;;;;20.90;99.90;;;;;;5054864;28;19913;-73
2021/12/01 10:08:50;;;;;;;;;;;20.90;99.90;;;;;;5063632;28;20356;-72
2021/12/01 10:11:21;;;;;;;;;;;20.90;99.90;;;;;;5070672;28;20005;-72
2021/12/01 10:13:51;;;;;;;;;;;20.90;99.90;;;;;;5070998;28;20341;-69
2021/12/01 10:16:19;;;;;;;;;;;20.90;99.90;;;;;;5070650;28;19946;-71
2021/12/01 10:18:47;;;;;;;;;;;20.90;99.90;;;;;;5071178;28;19916;-73
2021/12/01 10:21:19;;;;;;;;;;;20.90;99.90;;;;;;5070619;28;19920;-71
2021/12/01 10:23:48;;;;;;;;;;;20.90;99.90;;;;;;5069761;28;20366;-67
2021/12/01 10:26:34;;;;;;;;;;;20.90;99.90;;;;;;5069790;28;19923;-69
2021/12/01 10:29:05;;;;;;;;;;;20.90;99.90;;;;;;5070642;28;19923;-70
2021/12/01 10:31:33;;;;;;;;;;;20.80;99.90;;;;;;5069448;28;20287;-70
2021/12/01 10:34:17;;;;;;;;;;;20.80;99.90;;;;;;5070573;28;19912;-73
2021/12/01 10:36:47;;;;;;;;;;;20.80;99.90;;;;;;5070940;28;19999;-69
2021/12/01 10:39:17;;;;;;;;;;;20.70;99.90;;;;;;5074493;28;20011;-69
2021/12/01 10:41:44;;;;;;;;;;;20.70;99.90;;;;;;5074769;28;20005;-73
2021/12/01 10:44:12;;;;;;;;;;;20.70;99.90;;;;;;5074616;28;20011;-69
2021/12/01 10:46:52;;;;;;;;;;;20.70;99.90;;;;;;5074265;28;19916;-70
2021/12/01 10:49:40;;;;;;;;;;;20.70;99.90;;;;;;5074571;28;19916;-70
2021/12/01 10:52:28;;;;;;;;;;;20.70;99.90;;;;;;5074761;28;19923;-69
2021/12/01 10:55:05;;;;;;;;;;;20.70;99.90;;;;;;5074494;28;19919;-70
2021/12/01 10:57:32;;;;;;;;;;;20.70;99.90;;;;;;5072414;28;19912;-71
2021/12/01 10:59:59;;;;;;;;;;;20.70;99.90;;;;;;5073557;28;19916;-69
2021/12/01 11:02:26;;;;;;;;;;;20.60;99.90;;;;;;5073798;28;19920;-68
2021/12/01 11:04:53;;;;;;;;;;;20.60;99.90;;;;;;5074688;28;19986;-68
2021/12/01 11:07:30;;;;;;;;;;;20.60;99.90;;;;;;5074643;28;19920;-69
2021/12/01 11:10:29;;;;;;;;;;;20.60;99.90;;;;;;5073795;28;19928;-68
2021/12/01 11:12:57;;;;;;;;;;;20.60;99.90;;;;;;5057068;28;19924;-69
2021/12/01 11:15:25;;;;;;;;;;;20.60;99.90;;;;;;5074478;28;19916;-68
2021/12/01 11:17:54;;;;;;;;;;;20.60;99.90;;;;;;5073043;28;19921;-71
2021/12/01 11:20:37;;;;;;;;;;;20.50;99.90;;;;;;5074378;28;19920;-70
2021/12/01 11:23:06;;;;;;;;;;;20.50;99.90;;;;;;5073650;28;19920;-68
2021/12/01 11:25:36;;;;;;;;;;;20.50;99.90;;;;;;5074525;28;20365;-68
2021/12/01 11:28:03;;;;;;;;;;;20.50;99.90;;;;;;5073338;28;19966;-67
2021/12/01 11:30:30;;;;;;;;;;;20.50;99.90;;;;;;5073059;28;19927;-72
2021/12/01 11:32:57;;;;;;;;;;;20.50;99.90;;;;;;5071713;28;19912;-71
2021/12/01 11:35:23;;;;;;;;;;;20.50;99.90;;;;;;5073895;28;19916;-68
2021/12/01 11:37:55;;;;;;;;;;;20.50;99.90;;;;;;5073253;28;20006;-68
2021/12/01 11:40:23;;;;;;;;;;;20.50;99.90;;;;;;5073878;28;20007;-70
2021/12/01 11:42:49;;;;;;;;;;;20.50;99.90;;;;;;5073436;28;20493;-68
2021/12/01 11:45:16;;;;;;;;;;;20.50;99.90;;;;;;5072350;28;20290;-71
2021/12/01 11:47:49;;;;;;;;;;;20.40;99.90;;;;;;5073438;28;19913;-68
2021/12/01 11:50:21;;;;;;;;;;;20.40;99.90;;;;;;5072486;28;20052;-70
2021/12/01 11:52:55;;;;;;;;;;;20.40;99.90;;;;;;5073485;28;19990;-71
2021/12/01 11:55:40;;;;;;;;;;;20.40;99.90;;;;;;5073155;28;19916;-71
2021/12/01 11:58:06;;;;;;;;;;;20.40;99.90;;;;;;5072924;28;19916;-68
2021/12/01 12:00:48;;;;;;;;;;;20.40;99.90;;;;;;5073518;28;19917;-70
2021/12/01 12:03:25;;;;;;;;;;;20.40;99.90;;;;;;5073147;28;19966;-71
2021/12/01 12:06:10;;;;;;;;;;;20.40;99.90;;;;;;5073354;28;19912;-67
2021/12/01 12:08:56;;;;;;;;;;;20.50;99.90;;;;;;5073138;28;20282;-71
2021/12/01 12:11:43;;;;;;;;;;;20.50;99.90;;;;;;5072991;28;19924;-69
2021/12/01 12:14:15;;;;;;;;;;;20.50;99.90;;;;;;5066847;28;19923;-71
2021/12/01 12:17:00;;;;;;;;;;;20.50;99.90;;;;;;5073065;28;19913;-71
2021/12/01 12:19:45;;;;;;;;;;;20.50;99.90;;;;;;5072993;28;20383;-70
2021/12/01 12:22:13;;;;;;;;;;;20.50;99.90;;;;;;5073509;28;19912;-69
2021/12/01 12:24:54;;;;;;;;;;;20.50;99.90;;;;;;5072782;28;19916;-71
2021/12/01 12:27:36;;;;;;;;;;;20.40;99.90;;;;;;5065353;28;19966;-73
2021/12/01 12:30:09;;;;;;;;;;;20.40;99.90;;;;;;5072315;28;20256;-69
2021/12/01 12:32:36;;;;;;;;;;;20.40;99.90;;;;;;5072526;28;20346;-67
2021/12/01 12:35:13;;;;;;;;;;;20.40;99.90;;;;;;5072422;28;19913;-72
2021/12/01 12:37:41;;;;;;;;;;;20.40;99.90;;;;;;5072862;28;19948;-71
2021/12/01 12:40:31;;;;;;;;;;;20.40;99.90;;;;;;5071813;28;20007;-69
2021/12/01 12:43:09;;;;;;;;;;;20.50;99.90;;;;;;5069438;28;20077;-69
2021/12/01 12:45:38;;;;;;;;;;;20.40;99.90;;;;;;5072983;28;19913;-70
2021/12/01 12:48:33;;;;;;;;;;;20.40;99.90;;;;;;5071783;28;19913;-70
2021/12/01 12:51:17;;;;;;;;;;;20.40;99.90;;;;;;5062111;28;19921;-70
2021/12/01 12:54:06;;;;;;;;;;;20.40;99.90;;;;;;5072623;28;19924;-68
2021/12/01 12:56:35;;;;;;;;;;;20.40;99.90;;;;;;5072229;28;19939;-70
2021/12/01 12:59:19;;;;;;;;;;;20.40;99.90;;;;;;5072746;28;19916;-68
2021/12/01 13:01:50;;;;;;;;;;;20.30;99.90;;;;;;5071839;28;19970;-67
2021/12/01 13:04:34;;;;;;;;;;;20.40;99.90;;;;;;5072491;28;20259;-68
2021/12/01 13:07:20;;;;;;;;;;;20.40;99.90;;;;;;5072003;28;19912;-70
2021/12/01 13:10:02;;;;;;;;;;;20.40;99.90;;;;;;5057898;28;20285;-68
2021/12/01 13:12:29;;;;;;;;;;;20.40;99.90;;;;;;5046911;28;20003;-70
2021/12/01 13:14:56;;;;;;;;;;;20.40;99.90;;;;;;5055886;28;19913;-70
2021/12/01 13:17:23;;;;;;;;;;;20.40;99.90;;;;;;5054458;28;19971;-70
2021/12/01 13:19:50;;;;;;;;;;;20.40;99.90;;;;;;5055147;28;19912;-68
2021/12/01 13:22:16;;;;;;;;;;;20.40;99.90;;;;;;5054332;28;19920;-66
2021/12/01 13:24:43;;;;;;;;;;;20.40;99.90;;;;;;5054501;28;19921;-68
2021/12/01 13:27:09;;;;;;;;;;;20.50;99.90;;;;;;5062781;28;19991;-71
2021/12/01 13:29:36;;;;;;;;;;;20.40;99.90;;;;;;5054868;28;19928;-69
2021/12/01 13:32:03;;;;;;;;;;;20.40;99.90;;;;;;5060479;28;19924;-70
2021/12/01 13:34:34;;;;;;;;;;;20.40;99.90;;;;;;5054366;28;19956;-67
2021/12/01 13:37:04;;;;;;;;;;;20.30;99.90;;;;;;5054388;28;19939;-71
2021/12/01 13:39:32;;;;;;;;;;;20.30;99.90;;;;;;5054283;28;19940;-70
2021/12/01 13:42:04;;;;;;;;;;;20.30;99.90;;;;;;5054903;28;19959;-67
2021/12/01 13:44:41;;;;;;;;;;;20.30;99.90;;;;;;5054332;28;19919;-70
2021/12/01 13:47:15;;;;;;;;;;;20.20;99.90;;;;;;5063696;28;19917;-66
2021/12/01 13:49:48;;;;;;;;;;;20.20;99.90;;;;;;5053943;28;19916;-69
2021/12/01 13:52:29;;;;;;;;;;;20.20;99.90;;;;;;5062568;28;19923;-70
2021/12/01 13:54:56;;;;;;;;;;;20.20;99.90;;;;;;5054772;28;20007;-70
2021/12/01 13:57:23;;;;;;;;;;;20.20;99.90;;;;;;5044474;28;19917;-67
2021/12/01 13:59:51;;;;;;;;;;;20.20;99.90;;;;;;5044480;28;19920;-68
2021/12/01 14:02:30;;;;;;;;;;;20.20;99.90;;;;;;5054102;28;20383;-69
2021/12/01 14:05:01;;;;;;;;;;;20.20;99.90;;;;;;5054742;28;19938;-69
2021/12/01 14:07:50;;;;;;;;;;;20.20;99.90;;;;;;5045138;28;19955;-68
2021/12/01 14:10:29;;;;;;;;;;;20.30;99.90;;;;;;5066308;28;19920;-67
2021/12/01 14:12:57;;;;;;;;;;;20.30;99.90;;;;;;5070516;28;19958;-71
2021/12/01 14:15:27;;;;;;;;;;;20.30;99.90;;;;;;5071115;28;20294;-70
2021/12/01 14:17:54;;;;;;;;;;;20.40;99.90;;;;;;5070707;28;19912;-67
2021/12/01 14:20:23;;;;;;;;;;;20.30;99.90;;;;;;5071107;28;19978;-69
2021/12/01 14:22:49;;;;;;;;;;;20.30;99.90;;;;;;5071160;28;19919;-71
2021/12/01 14:25:17;;;;;;;;;;;20.30;99.90;;;;;;5070772;28;19955;-66
2021/12/01 14:27:43;;;;;;;;;;;20.30;99.90;;;;;;5071257;28;19919;-70
2021/12/01 14:30:12;;;;;;;;;;;20.40;99.90;;;;;;5070421;28;20070;-71
2021/12/01 14:32:39;;;;;;;;;;;20.40;99.90;;;;;;5068754;28;20019;-67
2021/12/01 14:35:06;;;;;;;;;;;20.40;99.90;;;;;;5070571;28;19919;-68
2021/12/01 14:37:34;;;;;;;;;;;20.50;99.90;;;;;;5071025;28;20378;-69